Time;durP1;ratioP1;P1;durP2;ratioP2;P2;SDS_P1;SDS_P2;PMS_P1;PMS_P2;Temp;Humidity;BMP_temperature;BMP_pressure;BME280_temperature;BME280_humidity;BME280_pressure;Samples;Min_cycle;Max_cycle;Signal;HPM_P1;HPM_P2
2022/06/17 00:01:25;;;;;;;6.15;2.40;;;18.70;51.40;;;;;;4969234;28;20046;-52
2022/06/17 00:03:52;;;;;;;2.90;2.15;;;18.70;51.50;;;;;;4970826;28;20082;-52
2022/06/17 00:06:25;;;;;;;4.70;2.42;;;18.70;51.50;;;;;;4972561;28;20458;-51
2022/06/17 00:08:53;;;;;;;2.67;2.22;;;18.70;52.10;;;;;;4975018;28;20038;-54
2022/06/17 00:11:25;;;;;;;2.60;2.17;;;18.60;51.80;;;;;;5001410;28;20442;-52
2022/06/17 00:13:52;;;;;;;2.63;2.42;;;18.50;52.10;;;;;;4976689;28;20038;-52
2022/06/17 00:16:21;;;;;;;3.13;2.38;;;18.60;51.80;;;;;;4972713;28;20039;-51
2022/06/17 00:18:49;;;;;;;3.25;2.95;;;18.50;51.90;;;;;;4974384;28;20065;-50
2022/06/17 00:21:32;;;;;;;2.47;2.28;;;18.40;51.80;;;;;;4959991;28;20475;-51
2022/06/17 00:24:00;;;;;;;3.95;2.90;;;18.50;52.60;;;;;;4974374;28;20516;-51
2022/06/17 00:26:28;;;;;;;3.47;2.25;;;18.40;51.90;;;;;;4973235;28;20105;-51
2022/06/17 00:28:54;;;;;;;5.38;3.08;;;18.40;51.90;;;;;;4969719;28;20047;-54
2022/06/17 00:31:21;;;;;;;5.68;2.78;;;18.30;52.00;;;;;;4971522;28;20035;-51
2022/06/17 00:33:48;;;;;;;2.85;2.50;;;18.30;52.30;;;;;;4970771;28;20050;-50
2022/06/17 00:36:18;;;;;;;2.80;2.60;;;18.30;52.50;;;;;;4971375;28;20141;-53
2022/06/17 00:38:46;;;;;;;2.97;1.95;;;18.30;52.90;;;;;;4973675;28;20074;-54
2022/06/17 00:41:26;;;;;;;2.90;2.70;;;18.30;53.70;;;;;;4969687;28;20050;-51
2022/06/17 00:43:53;;;;;;;3.40;2.30;;;18.30;53.90;;;;;;4971813;28;20054;-49
2022/06/17 00:46:26;;;;;;;3.08;2.45;;;18.30;53.40;;;;;;4972840;28;20043;-49
2022/06/17 00:49:06;;;;;;;4.22;2.50;;;18.30;53.50;;;;;;4965110;28;20058;-50
2022/06/17 00:51:40;;;;;;;3.05;2.20;;;18.40;54.50;;;;;;4972749;28;20035;-49
2022/06/17 00:54:20;;;;;;;2.70;2.40;;;18.40;54.20;;;;;;4973702;28;20050;-54
2022/06/17 00:56:47;;;;;;;2.35;2.13;;;18.40;54.90;;;;;;4973006;28;20413;-54
2022/06/17 00:59:15;;;;;;;2.58;2.38;;;18.40;54.20;;;;;;4963815;28;20046;-53
2022/06/17 01:01:53;;;;;;;2.80;2.60;;;18.40;54.20;;;;;;4971720;28;20050;-51
2022/06/17 01:04:34;;;;;;;2.50;2.30;;;18.40;54.80;;;;;;5059728;22;20045;-52
2022/06/17 01:07:11;;;;;;;4.18;2.25;;;18.40;54.30;;;;;;5052335;28;20090;-47
2022/06/17 01:09:58;;;;;;;4.43;2.90;;;18.40;54.70;;;;;;5051210;28;20049;-48
2022/06/17 01:12:33;;;;;;;5.35;2.58;;;18.40;54.20;;;;;;5064596;28;20499;-48
2022/06/17 01:15:00;;;;;;;3.85;2.45;;;18.40;54.50;;;;;;5050743;28;20045;-49
2022/06/17 01:17:34;;;;;;;3.75;2.25;;;18.40;54.00;;;;;;5043934;28;20053;-50
2022/06/17 01:20:04;;;;;;;4.50;3.05;;;18.40;54.70;;;;;;5050244;28;20060;-49
2022/06/17 01:22:47;;;;;;;2.75;2.53;;;18.30;54.20;;;;;;5050561;28;20536;-47
2022/06/17 01:25:25;;;;;;;2.70;2.50;;;18.30;54.70;;;;;;5049433;28;20115;-49
2022/06/17 01:28:02;;;;;;;2.97;2.63;;;18.30;54.30;;;;;;5049542;28;20489;-49
2022/06/17 01:30:33;;;;;;;3.42;2.60;;;18.40;54.70;;;;;;5050147;28;20048;-48
2022/06/17 01:33:10;;;;;;;3.70;2.80;;;18.30;54.60;;;;;;5041514;28;20072;-47
2022/06/17 01:35:43;;;;;;;4.93;2.80;;;18.20;54.60;;;;;;5038869;28;20060;-53
2022/06/17 01:38:11;;;;;;;5.07;2.70;;;18.30;55.10;;;;;;5063853;28;20053;-49
2022/06/17 01:40:38;;;;;;;3.22;2.80;;;18.20;54.70;;;;;;5059088;28;20501;-48
2022/06/17 01:43:10;;;;;;;3.33;3.03;;;18.30;54.90;;;;;;5049279;28;20045;-49
2022/06/17 01:45:41;;;;;;;3.15;2.85;;;18.30;55.30;;;;;;5040340;28;20049;-49
2022/06/17 01:48:12;;;;;;;3.05;2.75;;;18.20;55.80;;;;;;5040375;28;20041;-49
2022/06/17 01:50:42;;;;;;;3.38;3.00;;;18.30;54.90;;;;;;5030066;28;20034;-47
2022/06/17 01:53:13;;;;;;;4.75;2.70;;;18.20;54.80;;;;;;5031524;28;20033;-47
2022/06/17 01:55:48;;;;;;;;;;;18.20;54.70;;;;;;5043892;28;20037;-49
2022/06/17 01:58:27;;;;;;;4.15;2.20;;;18.20;53.90;;;;;;5066500;28;20007;-51
2022/06/17 02:00:55;;;;;;;3.17;2.97;;;18.20;54.10;;;;;;5049696;28;20131;-51
2022/06/17 02:03:26;;;;;;;3.65;2.60;;;18.20;54.00;;;;;;5065605;28;20035;-52
2022/06/17 02:06:14;;;;;;;3.25;2.90;;;18.10;54.30;;;;;;5041557;28;20045;-51
2022/06/17 02:08:41;;;;;;;4.93;3.00;;;18.10;55.50;;;;;;5042348;28;20048;-52
2022/06/17 02:11:11;;;;;;;3.03;2.83;;;18.00;54.10;;;;;;5049953;28;20040;-51
2022/06/17 02:13:44;;;;;;;6.70;2.60;;;18.00;54.30;;;;;;5044951;28;20044;-51
2022/06/17 02:16:21;;;;;;;4.35;2.90;;;18.00;54.20;;;;;;5047407;28;20520;-48
2022/06/17 02:18:55;;;;;;;3.15;2.85;;;17.90;54.20;;;;;;5049459;28;20059;-48
2022/06/17 02:21:32;;;;;;;3.95;2.75;;;17.90;54.20;;;;;;5048318;28;20092;-52
2022/06/17 02:24:02;;;;;;;2.85;2.65;;;17.80;54.60;;;;;;5061281;28;20041;-51
2022/06/17 02:26:32;;;;;;;5.43;2.88;;;17.80;54.30;;;;;;5048079;28;20520;-49
2022/06/17 02:29:00;;;;;;;4.85;3.15;;;17.80;54.40;;;;;;5048964;28;20045;-49
2022/06/17 02:31:28;;;;;;;5.28;2.90;;;17.70;54.40;;;;;;5060012;28;20040;-48
2022/06/17 02:33:55;;;;;;;3.80;3.42;;;17.70;54.50;;;;;;5041140;28;20029;-49
2022/06/17 02:36:30;;;;;;;2.85;2.65;;;17.70;54.50;;;;;;5047991;28;20056;-49
2022/06/17 02:38:59;;;;;;;8.00;2.88;;;17.60;54.80;;;;;;5034187;28;20800;-49
2022/06/17 02:41:28;;;;;;;4.82;3.00;;;17.60;54.50;;;;;;5035153;28;20045;-49
2022/06/17 02:43:58;;;;;;;4.47;3.20;;;17.60;54.70;;;;;;5043403;28;20045;-48
2022/06/17 02:46:29;;;;;;;3.72;2.80;;;17.50;54.60;;;;;;5049626;28;20037;-49
2022/06/17 02:49:00;;;;;;;4.30;2.90;;;17.50;54.80;;;;;;5049291;28;20064;-52
2022/06/17 02:51:32;;;;;;;3.88;3.05;;;17.50;54.90;;;;;;5040781;28;20107;-48
2022/06/17 02:54:04;;;;;;;4.45;3.22;;;17.50;55.00;;;;;;5048333;28;20048;-49
2022/06/17 02:56:36;;;;;;;3.28;2.97;;;17.40;54.90;;;;;;5049438;28;20412;-48
2022/06/17 02:59:13;;;;;;;3.58;2.88;;;17.40;55.00;;;;;;5047999;28;20090;-50
2022/06/17 03:01:44;;;;;;;4.03;2.97;;;17.40;55.40;;;;;;5046778;28;20570;-48
2022/06/17 03:04:32;;;;;;;4.05;3.35;;;17.30;54.80;;;;;;5047788;28;20566;-48
2022/06/17 03:07:01;;;;;;;3.47;3.17;;;17.40;54.90;;;;;;5049215;28;20037;-48
2022/06/17 03:09:31;;;;;;;4.38;3.35;;;17.30;55.00;;;;;;5051734;28;20072;-50
2022/06/17 03:12:08;;;;;;;4.72;3.40;;;17.30;55.80;;;;;;5048289;28;20045;-52
2022/06/17 03:14:44;;;;;;;4.22;3.63;;;17.30;55.10;;;;;;5047273;28;20095;-51
2022/06/17 03:17:15;;;;;;;3.17;2.90;;;17.30;55.50;;;;;;5050086;28;20116;-50
2022/06/17 03:19:42;;;;;;;6.13;3.33;;;17.20;55.40;;;;;;5039921;28;20053;-50
2022/06/17 03:22:12;;;;;;;4.43;3.25;;;17.20;55.10;;;;;;5049215;28;20040;-49
2022/06/17 03:25:07;;;;;;;4.22;3.35;;;17.30;55.40;;;;;;5038565;28;20072;-50
2022/06/17 03:27:41;;;;;;;4.88;3.38;;;17.30;56.10;;;;;;5045534;28;20046;-51
2022/06/17 03:30:11;;;;;;;4.63;3.22;;;17.20;55.70;;;;;;5048924;28;20048;-49
2022/06/17 03:32:42;;;;;;;4.63;3.83;;;17.10;55.50;;;;;;5055408;28;20072;-52
2022/06/17 03:35:20;;;;;;;4.28;3.40;;;17.10;55.80;;;;;;5065643;28;20516;-48
2022/06/17 03:37:51;;;;;;;3.60;3.22;;;17.10;56.10;;;;;;5043972;28;20045;-48
2022/06/17 03:40:22;;;;;;;;;;;17.10;56.20;;;;;;5047179;28;20049;-49
2022/06/17 03:43:16;;;;;;;5.22;3.00;;;17.10;55.40;;;;;;5050748;28;19921;-51
2022/06/17 03:45:50;;;;;;;4.47;3.00;;;17.10;56.30;;;;;;5049643;28;20566;-48
2022/06/17 03:48:21;;;;;;;;;;;17.10;56.00;;;;;;5050175;28;20127;-51
2022/06/17 03:50:48;;;;;;;6.03;3.40;;;17.20;55.50;;;;;;5068989;28;19921;-48
2022/06/17 03:53:24;;;;;;;4.47;3.30;;;17.20;55.60;;;;;;5051645;28;20463;-52
2022/06/17 03:55:53;;;;;;;5.45;3.13;;;17.20;56.40;;;;;;5044755;28;20050;-48
2022/06/17 03:58:22;;;;;;;5.47;3.65;;;17.20;56.80;;;;;;5049998;28;20052;-50
2022/06/17 04:01:12;;;;;;;4.35;3.53;;;17.20;56.40;;;;;;5052518;28;20126;-48
2022/06/17 04:03:46;;;;;;;5.82;3.70;;;17.20;57.50;;;;;;5051122;28;20056;-48
2022/06/17 04:06:22;;;;;;;5.13;3.83;;;17.20;56.90;;;;;;5042293;28;20451;-50
2022/06/17 04:08:59;;;;;;;6.10;3.67;;;17.20;57.30;;;;;;5053683;28;20039;-50
2022/06/17 04:11:37;;;;;;;5.50;4.22;;;17.30;57.50;;;;;;5052134;28;20098;-48
2022/06/17 04:14:18;;;;;;;4.78;3.53;;;17.30;58.20;;;;;;5049544;28;20037;-49
2022/06/17 04:16:57;;;;;;;5.22;4.18;;;17.30;57.80;;;;;;5051273;28;20037;-48
2022/06/17 04:19:26;;;;;;;4.03;3.58;;;17.30;57.90;;;;;;5049153;28;20119;-48
2022/06/17 04:22:03;;;;;;;5.32;3.97;;;17.40;57.60;;;;;;5050669;28;20482;-49
2022/06/17 04:24:40;;;;;;;7.22;4.70;;;17.40;58.20;;;;;;5047039;28;21393;-48
2022/06/17 04:27:24;;;;;;;4.40;3.72;;;17.40;57.90;;;;;;5067004;28;20041;-48
2022/06/17 04:29:58;;;;;;;5.85;3.97;;;17.50;58.70;;;;;;5050851;28;20083;-53
2022/06/17 04:32:33;;;;;;;4.75;3.97;;;17.50;58.60;;;;;;5042042;28;20044;-52
2022/06/17 04:35:00;;;;;;;4.20;3.85;;;17.60;59.70;;;;;;5050174;28;20029;-50
2022/06/17 04:37:28;;;;;;;4.70;4.13;;;17.70;59.20;;;;;;5048098;28;20107;-50
2022/06/17 04:40:50;;;;;;;4.55;4.15;;;17.70;59.50;;;;;;5027840;28;20064;-50
2022/06/17 04:43:40;;;;;;;5.38;4.72;;;17.80;61.10;;;;;;5044091;28;20048;-50
2022/06/17 04:46:16;;;;;;;6.22;5.30;;;17.90;61.10;;;;;;5048942;28;20128;-51
2022/06/17 04:48:51;;;;;;;6.20;4.57;;;18.00;60.70;;;;;;5048405;28;20090;-48
2022/06/17 04:51:18;;;;;;;5.35;4.85;;;18.10;60.40;;;;;;5050151;28;20094;-49
2022/06/17 04:53:48;;;;;;;5.32;4.85;;;18.20;60.70;;;;;;5048816;28;20044;-48
2022/06/17 04:56:41;;;;;;;4.90;4.43;;;18.30;61.10;;;;;;5049992;28;20044;-48
2022/06/17 04:59:28;;;;;;;7.70;5.18;;;18.40;61.70;;;;;;5049072;28;20516;-48
2022/06/17 05:01:56;;;;;;;5.80;4.90;;;18.50;60.90;;;;;;5044126;28;20596;-48
2022/06/17 05:04:51;;;;;;;5.25;4.72;;;18.60;61.10;;;;;;5039404;28;20420;-50
2022/06/17 05:07:18;;;;;;;6.97;4.57;;;18.70;61.50;;;;;;5051311;28;20045;-50
2022/06/17 05:09:50;;;;;;;4.93;4.43;;;18.80;61.10;;;;;;5047286;28;20167;-50
2022/06/17 05:12:33;;;;;;;7.15;4.68;;;19.00;61.40;;;;;;5047152;28;20098;-52
2022/06/17 05:15:11;;;;;;;7.00;5.25;;;19.10;61.90;;;;;;5047423;28;20103;-49
2022/06/17 05:17:39;;;;;;;5.63;4.95;;;19.20;62.10;;;;;;5059660;28;20068;-49
2022/06/17 05:20:08;;;;;;;6.05;4.97;;;19.30;61.20;;;;;;5051239;28;20527;-49
2022/06/17 05:22:54;;;;;;;7.93;5.18;;;19.40;61.30;;;;;;5044618;28;20128;-48
2022/06/17 05:25:25;;;;;;;5.38;4.40;;;19.60;61.70;;;;;;5049421;28;20049;-52
2022/06/17 05:27:52;;;;;;;8.27;5.22;;;19.70;61.30;;;;;;5051115;28;20048;-49
2022/06/17 05:30:19;;;;;;;6.60;5.13;;;19.80;61.40;;;;;;5048797;28;20462;-51
2022/06/17 05:32:53;;;;;;;7.22;5.82;;;19.90;60.80;;;;;;5045101;28;20084;-49
2022/06/17 05:35:21;;;;;;;6.25;4.90;;;20.10;61.40;;;;;;5048444;28;20045;-50
2022/06/17 05:37:50;;;;;;;5.57;5.07;;;20.20;60.50;;;;;;5051003;28;20045;-49
2022/06/17 05:40:18;;;;;;;11.88;5.63;;;20.20;60.20;;;;;;5045701;28;20186;-50
2022/06/17 05:42:47;;;;;;;7.22;4.63;;;20.30;60.00;;;;;;5041896;28;20060;-49
2022/06/17 05:45:19;;;;;;;8.05;5.43;;;20.30;59.70;;;;;;5049087;28;20527;-50
2022/06/17 05:48:05;;;;;;;5.70;5.13;;;20.40;60.20;;;;;;5043582;28;20443;-49
2022/06/17 05:50:49;;;;;;;7.93;4.75;;;20.40;59.70;;;;;;5045570;28;20049;-47
2022/06/17 05:53:34;;;;;;;6.60;4.32;;;20.60;59.40;;;;;;5047164;28;20045;-47
2022/06/17 05:56:12;;;;;;;6.45;4.65;;;20.50;59.00;;;;;;5041850;28;20453;-46
2022/06/17 05:58:39;;;;;;;6.00;4.35;;;20.60;58.80;;;;;;5040339;28;20056;-47
2022/06/17 06:01:08;;;;;;;5.80;4.78;;;20.60;58.70;;;;;;5051298;28;20419;-47
2022/06/17 06:03:35;;;;;;;4.72;4.03;;;20.60;58.90;;;;;;5041975;28;20041;-52
2022/06/17 06:06:05;;;;;;;4.03;3.63;;;20.70;58.70;;;;;;5043664;28;20053;-48
2022/06/17 06:08:32;;;;;;;6.65;3.90;;;20.80;58.80;;;;;;5045896;28;20041;-49
2022/06/17 06:11:03;;;;;;;6.25;3.92;;;20.80;58.90;;;;;;5048210;28;20071;-46
2022/06/17 06:13:33;;;;;;;5.85;3.92;;;20.90;58.90;;;;;;5044000;28;20056;-46
2022/06/17 06:16:01;;;;;;;4.47;4.00;;;21.10;58.80;;;;;;5047305;28;20500;-49
2022/06/17 06:18:45;;;;;;;6.22;4.25;;;21.20;58.20;;;;;;5042641;28;20049;-46
2022/06/17 06:21:19;;;;;;;4.07;3.60;;;21.30;57.80;;;;;;5058603;28;20045;-45
2022/06/17 06:23:46;;;;;;;6.80;5.35;;;21.50;57.20;;;;;;5040889;28;20075;-51
2022/06/17 06:26:23;;;;;;;6.43;4.10;;;21.70;56.80;;;;;;5018166;28;20041;-49
2022/06/17 06:28:57;;;;;;;5.32;3.30;;;21.80;56.40;;;;;;5028422;28;20049;-54
2022/06/17 06:31:31;;;;;;;6.20;3.28;;;21.90;56.10;;;;;;5015798;28;20044;-48
2022/06/17 06:34:01;;;;;;;4.15;3.25;;;22.10;55.70;;;;;;5027398;28;20045;-48
2022/06/17 06:36:36;;;;;;;4.65;2.90;;;22.30;55.40;;;;;;5031708;28;20057;-49
2022/06/17 06:39:02;;;;;;;3.08;2.72;;;22.40;54.70;;;;;;5045611;28;20103;-48
2022/06/17 06:41:29;;;;;;;12.52;4.15;;;22.50;54.20;;;;;;5039163;28;20045;-48
2022/06/17 06:43:57;;;;;;;3.88;3.15;;;22.70;53.80;;;;;;5046983;28;20114;-51
2022/06/17 06:46:53;;;;;;;6.35;3.75;;;22.80;53.30;;;;;;5026587;28;20076;-46
2022/06/17 06:49:29;;;;;;;7.50;2.40;;;22.90;53.00;;;;;;5033021;28;20052;-46
2022/06/17 06:51:56;;;;;;;4.28;2.60;;;23.00;53.10;;;;;;5036470;28;20045;-47
2022/06/17 06:54:24;;;;;;;4.60;2.25;;;23.10;52.70;;;;;;5035851;28;20041;-50
2022/06/17 06:56:52;;;;;;;5.85;3.20;;;23.20;52.50;;;;;;5030967;28;20041;-49
2022/06/17 06:59:40;;;;;;;2.75;2.15;;;23.30;51.90;;;;;;5040179;28;20668;-46
2022/06/17 07:02:09;;;;;;;4.70;2.60;;;23.40;51.40;;;;;;5028617;28;20049;-49
2022/06/17 07:04:37;;;;;;;6.60;2.40;;;23.50;51.10;;;;;;5037822;28;20041;-46
2022/06/17 07:07:05;;;;;;;2.70;2.25;;;23.60;51.00;;;;;;5037640;28;20063;-48
2022/06/17 07:09:32;;;;;;;4.20;2.13;;;23.70;50.70;;;;;;5054087;22;20049;-49
2022/06/17 07:11:59;;;;;;;2.90;2.28;;;23.80;51.00;;;;;;5040080;28;20037;-52
2022/06/17 07:14:26;;;;;;;3.67;2.53;;;23.90;50.90;;;;;;5044051;28;20036;-48
2022/06/17 07:16:55;;;;;;;7.15;3.17;;;24.00;50.30;;;;;;5040455;28;20052;-49
2022/06/17 07:19:21;;;;;;;4.72;2.45;;;24.20;50.40;;;;;;5043396;28;20408;-49
2022/06/17 07:21:51;;;;;;;8.73;2.63;;;24.20;49.90;;;;;;5042818;28;20049;-53
2022/06/17 07:24:17;;;;;;;7.22;3.03;;;24.40;49.80;;;;;;5037796;28;20042;-52
2022/06/17 07:26:47;;;;;;;4.57;2.58;;;24.40;49.40;;;;;;5040664;28;20037;-52
2022/06/17 07:29:14;;;;;;;5.78;2.65;;;24.50;49.10;;;;;;5048746;28;20037;-51
2022/06/17 07:31:41;;;;;;;5.32;2.15;;;24.60;49.10;;;;;;5039317;28;20033;-52
2022/06/17 07:34:07;;;;;;;5.40;2.42;;;24.60;49.10;;;;;;5046164;28;20500;-51
2022/06/17 07:42:06;;;;;;;5.78;2.17;;;24.80;48.10;;;;;;5040989;28;20049;-52
2022/06/17 07:44:32;;;;;;;5.78;2.30;;;24.80;48.10;;;;;;5048019;28;20053;-51
2022/06/17 07:46:59;;;;;;;5.82;2.10;;;24.70;47.90;;;;;;5045355;28;20080;-50
2022/06/17 07:49:27;;;;;;;3.88;2.00;;;24.70;47.70;;;;;;5047424;28;20037;-49
2022/06/17 07:51:58;;;;;;;5.30;2.22;;;24.70;47.60;;;;;;5045822;28;20052;-50
2022/06/17 07:54:25;;;;;;;8.75;4.03;;;24.70;47.80;;;;;;5048585;28;20051;-49
2022/06/17 07:56:55;;;;;;;8.05;2.80;;;24.70;48.10;;;;;;5049624;28;20075;-47
2022/06/17 07:59:22;;;;;;;8.93;3.10;;;24.70;47.60;;;;;;5047188;28;20107;-52
2022/06/17 08:01:54;;;;;;;2.15;1.90;;;24.70;48.00;;;;;;5043889;28;20055;-49
2022/06/17 08:04:21;;;;;;;5.50;2.10;;;24.60;47.60;;;;;;5048989;28;20045;-52
2022/06/17 08:06:52;;;;;;;2.80;1.90;;;24.70;47.80;;;;;;5048478;28;20110;-49
2022/06/17 08:09:26;;;;;;;2.22;1.65;;;24.70;47.80;;;;;;5046963;28;20030;-50
2022/06/17 08:11:53;;;;;;;4.15;1.60;;;24.70;47.70;;;;;;5045595;28;20037;-48
2022/06/17 08:14:22;;;;;;;2.95;2.17;;;24.70;47.50;;;;;;5050343;28;20090;-52
2022/06/17 08:16:50;;;;;;;2.55;1.88;;;24.70;47.20;;;;;;5052915;28;20049;-47
2022/06/17 08:19:22;;;;;;;5.70;2.20;;;24.70;47.00;;;;;;5048386;28;20053;-51
2022/06/17 08:21:51;;;;;;;18.73;2.22;;;24.70;47.00;;;;;;5053150;28;20041;-50
2022/06/17 08:24:25;;;;;;;3.33;1.75;;;24.80;46.70;;;;;;5052003;28;20049;-47
2022/06/17 08:26:52;;;;;;;1.45;1.35;;;24.90;46.50;;;;;;5049538;28;20061;-52
2022/06/17 08:29:22;;;;;;;1.55;1.13;;;24.90;45.70;;;;;;5046709;28;20095;-53
2022/06/17 08:34:54;;;;;;;4.00;2.05;;;25.00;44.70;;;;;;5051685;28;20045;-53
2022/06/17 08:37:21;;;;;;;2.42;1.67;;;25.00;44.60;;;;;;5047184;28;20087;-53
2022/06/17 08:39:51;;;;;;;1.63;1.52;;;25.00;44.70;;;;;;5052528;28;20049;-52
2022/06/17 08:42:45;;;;;;;1.95;1.83;;;25.00;44.40;;;;;;5052587;28;20097;-53
2022/06/17 08:45:26;;;;;;;3.67;1.50;;;25.00;44.50;;;;;;5046056;28;20394;-50
2022/06/17 08:48:19;;;;;;;3.28;1.70;;;25.10;44.00;;;;;;5046977;28;20045;-52
2022/06/17 08:50:55;;;;;;;3.17;1.85;;;25.10;44.30;;;;;;5052442;28;20405;-47
2022/06/17 08:53:34;;;;;;;3.03;1.73;;;25.20;44.40;;;;;;5051782;28;20037;-52
2022/06/17 08:56:28;;;;;;;3.80;2.00;;;25.20;44.20;;;;;;5051697;28;20067;-51
2022/06/17 08:59:21;;;;;;;3.08;1.90;;;25.30;44.10;;;;;;5047679;28;20049;-49
2022/06/17 09:02:29;;;;;;;3.47;1.55;;;25.30;43.70;;;;;;5045569;28;20052;-52
2022/06/17 09:05:11;;;;;;;1.63;1.50;;;25.40;44.20;;;;;;5031461;28;20045;-51
2022/06/17 09:08:07;;;;;;;2.08;1.60;;;25.50;44.00;;;;;;5043779;28;20041;-50
2022/06/17 09:10:57;;;;;;;1.70;1.60;;;25.60;42.80;;;;;;5052561;28;20037;-52
2022/06/17 09:13:42;;;;;;;2.53;1.35;;;25.70;43.50;;;;;;5051923;28;20071;-52
2022/06/17 09:16:28;;;;;;;3.28;1.58;;;25.80;43.40;;;;;;5045054;28;20386;-48
2022/06/17 09:19:00;;;;;;;3.53;1.67;;;25.90;43.40;;;;;;5047235;28;20079;-49
2022/06/17 09:21:40;;;;;;;2.45;1.52;;;26.00;43.60;;;;;;5051346;28;20568;-49
2022/06/17 09:24:29;;;;;;;2.10;1.70;;;26.20;43.00;;;;;;5028656;28;20041;-51
2022/06/17 09:26:58;;;;;;;1.60;1.50;;;26.30;42.50;;;;;;5046640;28;20451;-52
2022/06/17 09:30:03;;;;;;;1.77;1.60;;;26.40;42.00;;;;;;5051511;28;20041;-51
2022/06/17 09:32:39;;;;;;;2.45;1.42;;;26.50;42.00;;;;;;4968168;28;20042;-48
2022/06/17 09:35:16;;;;;;;2.33;1.48;;;26.60;41.50;;;;;;5040244;28;20103;-50
2022/06/17 09:38:05;;;;;;;4.80;1.60;;;26.70;41.50;;;;;;5049128;28;20041;-52
2022/06/17 09:40:52;;;;;;;1.40;1.30;;;26.80;40.50;;;;;;5051484;28;20099;-50
2022/06/17 09:43:43;;;;;;;2.97;1.48;;;26.90;40.90;;;;;;5048343;28;20116;-48
2022/06/17 09:46:34;;;;;;;2.40;1.38;;;26.90;40.50;;;;;;5050070;28;20723;-52
2022/06/17 09:49:11;;;;;;;2.72;1.48;;;26.90;39.90;;;;;;5047863;28;20041;-50
2022/06/17 09:52:05;;;;;;;1.67;1.45;;;26.90;39.80;;;;;;5043636;28;20040;-52
2022/06/17 09:55:05;;;;;;;4.47;2.23;;;26.90;39.90;;;;;;5048069;28;20037;-49
2022/06/17 09:57:45;;;;;;;2.05;1.70;;;26.90;40.20;;;;;;5046290;28;20039;-51
2022/06/17 10:00:17;;;;;;;1.70;1.45;;;26.90;40.50;;;;;;5049401;28;20425;-49
2022/06/17 10:02:49;;;;;;;4.13;2.30;;;26.90;40.40;;;;;;5047412;28;20044;-53
2022/06/17 10:05:43;;;;;;;3.90;1.48;;;27.00;40.70;;;;;;5050163;28;20377;-52
2022/06/17 10:08:18;;;;;;;2.25;1.92;;;27.00;40.60;;;;;;5051638;28;20068;-50
2022/06/17 10:11:16;;;;;;;4.40;1.80;;;27.10;40.60;;;;;;5051744;28;20155;-51
2022/06/17 10:14:02;;;;;;;7.65;1.90;;;27.20;40.20;;;;;;5048528;28;20056;-53
2022/06/17 10:19:38;;;;;;;2.28;1.67;;;27.30;40.80;;;;;;5050985;28;20048;-53
2022/06/17 10:22:25;;;;;;;1.90;1.80;;;27.40;40.80;;;;;;5044277;28;20043;-50
2022/06/17 10:25:34;;;;;;;3.25;2.10;;;27.50;40.80;;;;;;5046679;28;20811;-52
2022/06/17 10:28:24;;;;;;;2.60;1.70;;;27.50;39.20;;;;;;5030709;28;20046;-51
2022/06/17 10:31:13;;;;;;;1.63;1.50;;;27.60;40.40;;;;;;5042412;28;20574;-52
2022/06/17 10:33:41;;;;;;;2.42;1.40;;;27.70;40.40;;;;;;5040615;28;20033;-49
2022/06/17 10:36:08;;;;;;;1.88;1.73;;;27.60;40.70;;;;;;5047669;28;20060;-53
2022/06/17 10:38:46;;;;;;;6.60;1.80;;;27.70;40.60;;;;;;5046384;28;20094;-52
2022/06/17 10:41:17;;;;;;;2.85;1.40;;;27.70;40.10;;;;;;5044864;28;20127;-50
2022/06/17 10:43:50;;;;;;;3.90;1.75;;;27.70;40.60;;;;;;5048972;28;20094;-52
2022/06/17 10:46:25;;;;;;;2.97;1.42;;;27.80;40.60;;;;;;5050139;28;20087;-52
2022/06/17 10:49:16;;;;;;;3.58;2.05;;;27.80;39.90;;;;;;5049508;28;20500;-53
2022/06/17 10:51:51;;;;;;;4.85;1.85;;;27.90;38.80;;;;;;5048745;28;20049;-52
2022/06/17 10:54:34;;;;;;;4.70;2.38;;;27.90;38.90;;;;;;5052369;28;20029;-52
2022/06/17 10:57:21;;;;;;;2.65;1.58;;;28.00;39.00;;;;;;5045144;28;20044;-53
2022/06/17 10:59:47;;;;;;;2.17;2.00;;;28.10;40.10;;;;;;5040017;28;20049;-48
2022/06/17 11:02:20;;;;;;;3.90;1.63;;;28.10;38.70;;;;;;5028769;28;20041;-48
2022/06/17 11:05:06;;;;;;;3.05;1.98;;;28.20;39.00;;;;;;5042765;28;20041;-52
2022/06/17 11:07:37;;;;;;;1.92;1.40;;;28.30;38.30;;;;;;5040165;28;20029;-52
2022/06/17 11:10:18;;;;;;;2.00;1.23;;;28.30;37.30;;;;;;5041369;28;20041;-52
2022/06/17 11:13:13;;;;;;;1.58;1.30;;;28.40;37.50;;;;;;5033992;28;20045;-49
2022/06/17 11:15:51;;;;;;;1.65;1.17;;;28.50;36.90;;;;;;5026603;28;20056;-51
2022/06/17 11:18:30;;;;;;;3.13;1.33;;;28.70;36.70;;;;;;5036569;28;20037;-52
2022/06/17 11:21:06;;;;;;;2.17;1.67;;;28.80;36.30;;;;;;5047338;28;20045;-52
2022/06/17 11:23:41;;;;;;;2.67;1.40;;;29.00;36.10;;;;;;5040137;28;20075;-52
2022/06/17 11:26:14;;;;;;;2.25;1.30;;;29.10;36.30;;;;;;5045529;28;20041;-52
2022/06/17 11:28:48;;;;;;;2.00;1.65;;;29.20;35.50;;;;;;5040871;28;20102;-53
2022/06/17 11:31:24;;;;;;;1.58;1.30;;;29.30;34.80;;;;;;5047036;28;20048;-48
2022/06/17 11:33:53;;;;;;;3.08;1.25;;;29.30;34.80;;;;;;5037946;28;20052;-50
2022/06/17 11:36:21;;;;;;;1.70;1.40;;;29.40;35.80;;;;;;5043318;28;20045;-48
2022/06/17 11:38:49;;;;;;;2.60;2.05;;;29.40;36.30;;;;;;5037965;28;20114;-50
2022/06/17 11:41:27;;;;;;;1.60;1.50;;;29.50;35.90;;;;;;5046659;28;20056;-51
2022/06/17 11:44:04;;;;;;;2.75;1.80;;;29.50;36.30;;;;;;5039419;28;20097;-51
2022/06/17 11:46:33;;;;;;;2.30;1.60;;;29.60;35.90;;;;;;5043246;28;20072;-53
2022/06/17 11:49:13;;;;;;;5.30;1.30;;;29.60;35.80;;;;;;5042339;28;20049;-53
2022/06/17 11:51:47;;;;;;;2.72;1.40;;;29.70;36.30;;;;;;5048695;28;20041;-50
2022/06/17 11:54:23;;;;;;;3.28;1.65;;;29.80;36.00;;;;;;5043069;28;20138;-51
2022/06/17 11:56:52;;;;;;;2.08;1.27;;;29.80;36.10;;;;;;5042419;28;20045;-51
2022/06/17 11:59:25;;;;;;;2.08;1.77;;;29.90;36.30;;;;;;5030063;28;20481;-52
2022/06/17 12:01:55;;;;;;;2.17;1.63;;;30.00;35.00;;;;;;5024431;28;20079;-50
2022/06/17 12:04:31;;;;;;;2.25;1.48;;;30.00;35.00;;;;;;5044341;28;20568;-47
2022/06/17 12:06:58;;;;;;;2.05;1.10;;;30.10;34.30;;;;;;5037498;28;20041;-52
2022/06/17 12:09:53;;;;;;;2.17;1.67;;;30.30;33.60;;;;;;5045950;28;20547;-52
2022/06/17 12:12:25;;;;;;;2.22;1.50;;;30.30;35.10;;;;;;5041074;28;20107;-52
2022/06/17 12:14:59;;;;;;;2.28;1.63;;;30.30;33.90;;;;;;5047269;28;20493;-51
2022/06/17 12:17:26;;;;;;;2.67;1.85;;;30.40;33.40;;;;;;5043975;28;20099;-50
2022/06/17 12:19:54;;;;;;;1.88;1.30;;;30.40;33.50;;;;;;5049014;28;20045;-52
2022/06/17 12:22:43;;;;;;;3.15;1.40;;;30.50;33.00;;;;;;5044405;28;20087;-51
2022/06/17 12:25:35;;;;;;;1.42;1.25;;;30.60;33.10;;;;;;5048345;28;20033;-53
2022/06/17 12:28:10;;;;;;;2.15;1.38;;;30.70;32.70;;;;;;5042374;28;20041;-53
2022/06/17 12:30:40;;;;;;;4.05;1.20;;;30.80;33.10;;;;;;5049011;28;20717;-51
2022/06/17 12:33:17;;;;;;;1.45;1.35;;;30.80;32.40;;;;;;5043005;28;20040;-53
2022/06/17 12:35:47;;;;;;;2.17;1.60;;;30.90;32.40;;;;;;5047896;28;20107;-53
2022/06/17 12:38:30;;;;;;;2.45;1.08;;;31.00;32.40;;;;;;5044333;28;20053;-50
2022/06/17 12:41:07;;;;;;;1.83;1.08;;;31.00;31.90;;;;;;5049745;28;20055;-50
2022/06/17 12:43:37;;;;;;;1.95;1.10;;;31.10;33.10;;;;;;5044612;28;20052;-53
2022/06/17 12:46:10;;;;;;;2.97;1.15;;;31.20;32.30;;;;;;5050190;28;20052;-51
2022/06/17 12:48:56;;;;;;;1.27;1.10;;;31.30;32.50;;;;;;5043756;28;20071;-53
2022/06/17 12:54:49;;;;;;;1.20;0.98;;;31.60;31.50;;;;;;5045993;28;20041;-48
2022/06/17 12:57:48;;;;;;;1.20;0.98;;;31.70;32.20;;;;;;5043353;28;20041;-52
2022/06/17 13:00:36;;;;;;;1.10;0.70;;;31.80;32.40;;;;;;5018372;28;20099;-52
2022/06/17 13:03:27;;;;;;;1.33;0.95;;;32.00;31.20;;;;;;5037662;28;20044;-53
2022/06/17 13:05:57;;;;;;;2.92;1.27;;;32.10;31.80;;;;;;5041992;28;20036;-53
2022/06/17 13:08:34;;;;;;;0.80;0.80;;;32.30;32.00;;;;;;5039709;28;20463;-52
2022/06/17 13:11:06;;;;;;;0.90;0.90;;;32.50;32.60;;;;;;5043057;28;20049;-50
2022/06/17 13:13:57;;;;;;;2.35;1.00;;;32.70;31.20;;;;;;5041338;28;20045;-51
2022/06/17 13:16:38;;;;;;;3.45;1.20;;;32.90;30.30;;;;;;5046528;28;20053;-51
2022/06/17 13:19:27;;;;;;;2.25;0.80;;;33.00;30.60;;;;;;5038343;28;20049;-53
2022/06/17 13:22:03;;;;;;;0.73;0.73;;;33.20;30.30;;;;;;5043075;28;20052;-50
2022/06/17 13:24:52;;;;;;;2.70;0.75;;;33.40;30.00;;;;;;5045519;28;20045;-51
2022/06/17 13:27:34;;;;;;;0.95;0.85;;;33.60;29.90;;;;;;5034339;28;20127;-51
2022/06/17 13:30:08;;;;;;;;;;;33.90;32.30;;;;;;5043611;28;20067;-51
2022/06/17 13:32:39;;;;;;;0.90;0.77;;;34.20;32.20;;;;;;5041107;28;20002;-50
2022/06/17 13:35:28;;;;;;;0.77;0.77;;;34.80;29.80;;;;;;5044637;28;20166;-52
2022/06/17 13:37:58;;;;;;;1.10;0.75;;;35.60;32.10;;;;;;5038721;28;20516;-51
2022/06/17 13:40:30;;;;;;;1.48;0.77;;;36.40;32.30;;;;;;5049399;28;20087;-53
2022/06/17 13:43:02;;;;;;;1.75;0.65;;;37.40;30.00;;;;;;5041566;28;20492;-52
2022/06/17 13:46:02;;;;;;;0.70;0.70;;;38.50;30.00;;;;;;5046455;28;20041;-51